createdAt,value
2022-11-24T05:01:00.492Z,0.40
2022-11-24T05:02:00.447Z,0.40
2022-11-24T05:03:00.379Z,0.60
2022-11-24T05:04:00.402Z,0.50
2022-11-24T05:05:00.360Z,0.70
2022-11-24T05:06:00.324Z,0.50
2022-11-24T05:07:00.426Z,0.60
2022-11-24T05:08:00.466Z,0.30
2022-11-24T05:09:00.408Z,0.80
2022-11-24T05:10:00.365Z,0.70
2022-11-24T05:11:00.281Z,0.70
2022-11-24T05:12:00.255Z,0.80
2022-11-24T05:13:00.365Z,0.70
2022-11-24T05:14:00.245Z,0.30
2022-11-24T05:15:57.393Z,0.40
2022-11-24T05:16:57.351Z,0.50
2022-11-24T05:17:57.425Z,0.40
2022-11-24T05:18:57.495Z,0.40
2022-11-24T05:19:57.296Z,0.60
2022-11-24T05:20:57.286Z,0.50
2022-11-24T05:21:57.288Z,0.40
2022-11-24T05:22:57.338Z,0.50
2022-11-24T05:23:57.257Z,0.60
2022-11-24T05:24:57.275Z,0.50
2022-11-24T05:25:57.235Z,0.50
2022-11-24T05:26:57.218Z,0.60
2022-11-24T05:27:57.183Z,0.30
2022-11-24T05:28:57.194Z,0.70
2022-11-24T05:29:57.172Z,0.40
2022-11-24T05:30:57.280Z,0.30
2022-11-24T05:31:57.152Z,0.60
2022-11-24T05:32:57.133Z,0.40
2022-11-24T05:33:57.168Z,0.30
2022-11-24T05:34:57.122Z,0.30
2022-11-24T05:35:57.081Z,0.50
2022-11-24T05:36:57.152Z,0.50
2022-11-24T05:37:57.059Z,0.60
2022-11-24T05:38:57.080Z,0.50
2022-11-24T05:39:57.031Z,0.40
2022-11-24T05:40:57.078Z,0.60
2022-11-24T05:41:57.030Z,0.80
2022-11-24T05:42:57.093Z,0.50
2022-11-24T05:43:57.003Z,0.40
2022-11-24T05:44:57.010Z,0.50
2022-11-24T05:45:56.969Z,0.40
2022-11-24T05:46:56.990Z,0.50
2022-11-24T05:47:56.960Z,0.30
2022-11-24T05:48:57.143Z,0.40
2022-11-24T05:49:56.964Z,0.60
2022-11-24T05:50:56.975Z,0.70
2022-11-24T05:51:56.876Z,0.70
2022-11-24T05:52:56.958Z,0.40
2022-11-24T05:53:56.892Z,0.50
2022-11-24T05:54:56.879Z,0.50
2022-11-24T05:55:56.836Z,0.50
2022-11-24T05:56:56.844Z,0.60
2022-11-24T05:57:56.814Z,0.60
2022-11-24T05:58:56.883Z,0.80
2022-11-24T05:59:56.793Z,0.70
2022-11-24T06:00:56.792Z,0.40
2022-11-24T06:01:56.828Z,0.30
2022-11-24T06:02:56.842Z,0.60
2022-11-24T06:03:56.735Z,0.40
2022-11-24T06:04:56.803Z,0.60
2022-11-24T06:05:56.754Z,0.70
2022-11-24T06:06:56.711Z,0.80
2022-11-24T06:07:56.757Z,0.60
2022-11-24T06:08:56.705Z,0.60
2022-11-24T06:09:56.650Z,0.90
2022-11-24T06:10:56.710Z,0.80
2022-11-24T06:11:56.624Z,0.50
2022-11-24T06:12:56.639Z,0.50
2022-11-24T06:13:56.644Z,0.70
2022-11-24T06:14:56.590Z,0.50
2022-11-24T06:15:56.659Z,0.50
2022-11-24T06:16:56.911Z,0.70
2022-11-24T06:17:56.591Z,0.90
2022-11-24T06:18:56.532Z,0.50
2022-11-24T06:19:56.562Z,0.40
2022-11-24T06:21:10.158Z,0.70
2022-11-24T06:21:57.595Z,0.60
2022-11-24T06:22:56.504Z,0.70
2022-11-24T06:23:56.528Z,0.70
2022-11-24T06:24:56.465Z,0.80
2022-11-24T06:25:56.478Z,0.40
2022-11-24T06:26:56.436Z,0.60
2022-11-24T06:27:56.498Z,0.60
2022-11-24T06:28:56.403Z,0.60
2022-11-24T06:29:56.426Z,0.40
2022-11-24T06:30:56.377Z,0.50
2022-11-24T06:31:56.441Z,0.50
2022-11-24T06:32:56.366Z,0.60
2022-11-24T06:33:56.414Z,0.60
2022-11-24T06:34:56.361Z,0.40
2022-11-24T06:35:56.343Z,0.80
2022-11-24T06:36:56.497Z,0.70
2022-11-24T06:37:56.317Z,0.40
2022-11-24T06:38:56.332Z,0.50
2022-11-24T06:39:56.323Z,0.90
2022-11-24T06:40:56.253Z,0.50
2022-11-24T06:41:56.272Z,0.60
2022-11-24T06:42:56.230Z,0.60
2022-11-24T06:43:56.252Z,0.50
2022-11-24T06:44:57.603Z,0.50
2022-11-24T06:45:56.300Z,0.80
2022-11-24T06:46:56.193Z,0.50
2022-11-24T06:47:56.209Z,0.70
2022-11-24T06:48:56.168Z,0.40
2022-11-24T06:49:56.170Z,0.40
2022-11-24T06:50:56.173Z,0.50
2022-11-24T06:51:56.185Z,0.50
2022-11-24T06:52:56.136Z,0.40
2022-11-24T06:53:56.107Z,0.40
2022-11-24T06:54:56.241Z,0.50
2022-11-24T06:55:56.173Z,0.40
2022-11-24T06:56:56.135Z,0.80
2022-11-24T06:57:56.108Z,0.60
2022-11-24T06:58:56.040Z,0.50
2022-11-24T06:59:56.130Z,0.40
2022-11-24T07:00:56.145Z,0.60
2022-11-24T07:01:56.017Z,0.50
2022-11-24T07:02:56.133Z,0.30
2022-11-24T07:03:56.031Z,0.50
2022-11-24T07:04:55.977Z,0.30
2022-11-24T07:05:55.951Z,0.30
2022-11-24T07:06:55.944Z,0.60
2022-11-24T07:07:55.992Z,0.40
2022-11-24T07:08:56.099Z,0.40
2022-11-24T07:09:55.907Z,0.60
2022-11-24T07:10:55.982Z,0.70
2022-11-24T07:11:55.984Z,0.60
2022-11-24T07:12:55.851Z,0.50
2022-11-24T07:13:59.870Z,0.50
2022-11-24T07:15:02.901Z,1.00
2022-11-24T07:15:55.904Z,1.00
2022-11-24T07:16:55.821Z,0.40
2022-11-24T07:17:55.803Z,0.60
2022-11-24T07:19:02.788Z,0.60
2022-11-24T07:20:02.811Z,0.50
2022-11-24T07:20:55.767Z,0.60
2022-11-24T07:22:02.954Z,0.50
2022-11-24T07:22:55.714Z,0.80
2022-11-24T07:23:55.756Z,1.00
2022-11-24T07:24:55.704Z,0.70
2022-11-24T07:25:55.702Z,1.00
2022-11-24T07:26:55.674Z,1.30
2022-11-24T07:27:55.732Z,1.30
2022-11-24T07:28:55.642Z,1.00
2022-11-24T07:29:55.664Z,0.90
2022-11-24T07:30:55.621Z,0.90
2022-11-24T07:31:57.582Z,0.70
2022-11-24T07:32:55.597Z,0.60
2022-11-24T07:33:55.739Z,1.00
2022-11-24T07:34:55.573Z,0.60
2022-11-24T07:35:55.593Z,0.80
2022-11-24T07:36:55.554Z,0.60
2022-11-24T07:37:55.563Z,1.10
2022-11-24T07:38:55.528Z,0.60
2022-11-24T07:39:55.580Z,0.50
2022-11-24T07:40:55.559Z,0.60
2022-11-24T07:41:55.513Z,0.80
2022-11-24T07:42:55.469Z,0.80
2022-11-24T07:43:55.470Z,0.50
2022-11-24T07:44:55.451Z,0.70
2022-11-24T07:45:55.541Z,0.60
2022-11-24T07:46:55.420Z,0.50
2022-11-24T07:47:55.439Z,0.80
2022-11-24T07:48:55.401Z,0.70
2022-11-24T07:49:55.419Z,0.60
2022-11-24T07:50:56.113Z,0.60
2022-11-24T07:51:55.584Z,0.60
2022-11-24T07:52:55.348Z,0.60
2022-11-24T07:53:55.359Z,0.60
2022-11-24T07:54:55.318Z,0.90
2022-11-24T07:55:55.324Z,0.50
2022-11-24T07:56:55.296Z,0.60
2022-11-24T07:57:55.355Z,0.70
2022-11-24T07:58:55.257Z,0.80
2022-11-24T07:59:55.290Z,0.70
2022-11-24T08:00:55.246Z,0.80
2022-11-24T08:01:55.268Z,0.90
2022-11-24T08:02:55.215Z,0.60
2022-11-24T08:03:55.380Z,1.10
2022-11-24T08:04:55.202Z,0.80
2022-11-24T08:06:22.394Z,0.80
2022-11-24T08:06:56.174Z,0.80
2022-11-24T08:07:55.246Z,0.60
2022-11-24T08:08:55.149Z,0.90
2022-11-24T08:09:55.204Z,0.80
2022-11-24T08:10:55.113Z,0.80
2022-11-24T08:11:55.132Z,0.90
2022-11-24T08:12:55.094Z,1.20
2022-11-24T08:13:55.101Z,0.90
2022-11-24T08:14:55.075Z,0.80
2022-11-24T08:15:55.251Z,1.00
2022-11-24T08:16:55.122Z,0.90
2022-11-24T08:17:55.030Z,0.70
2022-11-24T08:18:55.010Z,0.80
2022-11-24T08:19:55.019Z,1.00
2022-11-24T08:20:55.016Z,0.90
2022-11-24T08:21:55.108Z,0.80
2022-11-24T08:22:54.979Z,0.80
2022-11-24T08:23:54.970Z,0.70
2022-11-24T08:24:54.938Z,0.90
2022-11-24T08:25:56.973Z,1.10
2022-11-24T08:26:54.924Z,1.00
2022-11-24T08:27:54.997Z,0.90
2022-11-24T08:28:54.887Z,0.60
2022-11-24T08:29:54.898Z,0.90
2022-11-24T08:30:54.866Z,1.40
2022-11-24T08:31:54.908Z,0.80
2022-11-24T08:32:54.849Z,0.90
2022-11-24T08:33:55.046Z,0.80
2022-11-24T08:34:59.658Z,0.70
2022-11-24T08:35:55.814Z,0.70
2022-11-24T08:36:54.786Z,0.70
2022-11-24T08:37:54.807Z,0.80
2022-11-24T08:38:54.765Z,0.50
2022-11-24T08:39:54.840Z,0.90
2022-11-24T08:40:54.738Z,0.80
2022-11-24T08:41:54.745Z,0.90
2022-11-24T08:42:54.703Z,0.60
2022-11-24T08:43:54.726Z,0.70
2022-11-24T08:44:59.012Z,0.80
2022-11-24T08:45:55.689Z,0.40
2022-11-24T08:46:54.662Z,0.90
2022-11-24T08:47:54.688Z,0.70
2022-11-24T08:48:54.642Z,0.60
2022-11-24T08:49:54.642Z,0.60
2022-11-24T08:50:54.642Z,0.70
2022-11-24T08:51:54.699Z,0.90
2022-11-24T08:52:54.576Z,0.50
2022-11-24T08:53:54.597Z,0.70
2022-11-24T08:54:54.558Z,0.70
2022-11-24T08:55:54.619Z,0.60
2022-11-24T08:56:54.520Z,0.80
2022-11-24T08:57:54.542Z,0.80
2022-11-24T08:58:54.587Z,0.90
2022-11-24T08:59:54.517Z,1.00
2022-11-24T09:00:54.711Z,0.70
2022-11-24T09:01:55.273Z,0.70
2022-11-24T09:02:54.579Z,1.30
2022-11-24T09:03:54.547Z,0.50
2022-11-24T09:04:54.463Z,0.50
2022-11-24T09:05:54.509Z,0.40
2022-11-24T09:06:54.406Z,0.70
2022-11-24T09:07:54.479Z,0.90
2022-11-24T09:08:54.370Z,0.70
2022-11-24T09:09:54.384Z,1.00
2022-11-24T09:10:54.406Z,0.40
2022-11-24T09:11:54.355Z,0.60
2022-11-24T09:12:54.328Z,0.60
2022-11-24T09:13:54.325Z,0.60
2022-11-24T09:14:54.285Z,0.70
2022-11-24T09:15:54.316Z,0.60
2022-11-24T09:16:54.515Z,0.60
2022-11-24T09:17:54.291Z,0.60
2022-11-24T09:18:54.245Z,0.70
2022-11-24T09:19:54.269Z,0.60
2022-11-24T09:20:54.208Z,0.50
2022-11-24T09:21:54.223Z,0.60
2022-11-24T09:22:54.264Z,0.50
2022-11-24T09:23:54.208Z,0.40
2022-11-24T09:24:54.164Z,0.60
2022-11-24T09:25:54.162Z,0.70
2022-11-24T09:26:54.133Z,0.40
2022-11-24T09:27:54.142Z,0.80
2022-11-24T09:28:54.162Z,0.60
2022-11-24T09:29:54.122Z,0.80
2022-11-24T09:30:54.111Z,0.90
2022-11-24T09:31:54.100Z,0.70
2022-11-24T09:32:54.060Z,0.90
2022-11-24T09:33:54.062Z,0.90
2022-11-24T09:34:54.143Z,0.70
2022-11-24T09:35:54.042Z,0.70
2022-11-24T09:36:54.011Z,0.60
2022-11-24T09:37:54.019Z,0.60
2022-11-24T09:38:53.997Z,0.60
2022-11-24T09:39:53.989Z,0.50
2022-11-24T09:40:54.980Z,0.50
2022-11-24T09:41:53.970Z,0.60
2022-11-24T09:42:53.947Z,0.50
2022-11-24T09:43:53.937Z,0.50
2022-11-24T09:44:53.906Z,0.80
2022-11-24T09:46:05.903Z,0.50
2022-11-24T09:46:54.996Z,0.50
2022-11-24T09:47:53.896Z,0.60
2022-11-24T09:48:53.874Z,0.70
2022-11-24T09:49:53.868Z,0.50
2022-11-24T09:50:53.842Z,0.60
2022-11-24T09:51:53.881Z,0.30
2022-11-24T09:52:53.805Z,0.50
2022-11-24T09:53:53.829Z,0.60
2022-11-24T09:54:53.785Z,0.40
2022-11-24T09:55:53.893Z,1.10
2022-11-24T09:56:53.756Z,0.50
2022-11-24T09:57:53.769Z,0.70
2022-11-24T09:58:53.730Z,0.40
2022-11-24T09:59:53.741Z,0.40
2022-11-24T10:00:53.706Z,0.60
2022-11-24T10:01:53.872Z,0.50
2022-11-24T10:02:53.683Z,0.50
2022-11-24T10:03:53.673Z,0.70
2022-11-24T10:04:53.698Z,0.50
2022-11-24T10:05:53.662Z,0.40
2022-11-24T10:06:53.623Z,0.60
2022-11-24T10:07:54.293Z,0.40
2022-11-24T10:08:53.593Z,0.40
2022-11-24T10:09:53.602Z,0.40
2022-11-24T10:10:53.581Z,0.40
2022-11-24T10:11:53.590Z,0.40
2022-11-24T10:12:53.583Z,0.50
2022-11-24T10:13:53.644Z,0.50
2022-11-24T10:14:53.522Z,0.70
2022-11-24T10:15:53.604Z,0.50
2022-11-24T10:16:53.500Z,0.40
2022-11-24T10:17:53.510Z,0.50
2022-11-24T10:18:53.482Z,0.60
2022-11-24T10:19:53.619Z,0.50
2022-11-24T10:20:53.456Z,0.40
2022-11-24T10:21:53.459Z,0.60
2022-11-24T10:22:53.438Z,0.50
2022-11-24T10:23:53.416Z,0.60
2022-11-24T10:24:53.497Z,0.60
2022-11-24T10:25:53.577Z,0.40
2022-11-24T10:26:53.416Z,0.50
2022-11-24T10:27:53.367Z,0.60
2022-11-24T10:28:53.368Z,0.50
2022-11-24T10:29:53.406Z,0.40
2022-11-24T10:30:53.517Z,0.60
2022-11-24T10:31:53.476Z,0.70
2022-11-24T10:32:53.325Z,0.50
2022-11-24T10:33:53.277Z,0.40
2022-11-24T10:34:53.297Z,0.60
2022-11-24T10:35:53.289Z,0.30
2022-11-24T10:36:53.265Z,0.50
2022-11-24T10:37:53.303Z,0.50
2022-11-24T10:38:53.265Z,0.50
2022-11-24T10:39:58.540Z,0.40
2022-11-24T10:40:58.031Z,0.50
2022-11-24T10:41:53.204Z,0.50
2022-11-24T10:42:53.344Z,0.50
2022-11-24T10:43:53.153Z,0.50
2022-11-24T10:44:53.172Z,0.80
2022-11-24T10:45:53.173Z,0.60
2022-11-24T10:46:53.246Z,0.50
2022-11-24T10:47:53.112Z,0.40
2022-11-24T10:48:53.302Z,0.50
2022-11-24T10:49:53.109Z,0.50
2022-11-24T10:50:53.155Z,0.50
2022-11-24T10:51:53.063Z,0.60
2022-11-24T10:52:53.072Z,0.50
2022-11-24T10:53:53.032Z,0.60
2022-11-24T10:54:53.290Z,0.40
2022-11-24T10:55:53.029Z,0.40
2022-11-24T10:56:53.021Z,0.50
2022-11-24T10:57:52.981Z,0.50
2022-11-24T10:58:52.991Z,0.60
2022-11-24T10:59:52.969Z,0.60
2022-11-24T11:00:53.881Z,0.70
2022-11-24T11:01:53.130Z,0.60
2022-11-24T11:02:53.009Z,1.00
2022-11-24T11:03:52.913Z,0.50
2022-11-24T11:04:52.922Z,0.50
2022-11-24T11:05:52.879Z,0.40
2022-11-24T11:06:52.949Z,0.30
2022-11-24T11:07:52.895Z,0.70
2022-11-24T11:08:52.862Z,0.50
2022-11-24T11:09:52.837Z,0.40
2022-11-24T11:10:52.828Z,0.40
2022-11-24T11:11:52.815Z,0.60
2022-11-24T11:12:52.888Z,0.80
2022-11-24T11:13:55.717Z,0.40
2022-11-24T11:14:53.794Z,0.70
2022-11-24T11:16:00.600Z,0.40
2022-11-24T11:16:52.759Z,0.30
2022-11-24T11:17:52.737Z,0.40
2022-11-24T11:18:52.728Z,0.40
2022-11-24T11:19:58.630Z,0.60
2022-11-24T11:20:53.768Z,0.40
2022-11-24T11:21:52.822Z,0.30
2022-11-24T11:22:52.721Z,0.30
2022-11-24T11:23:52.648Z,0.50
2022-11-24T11:24:52.652Z,0.30
2022-11-24T11:25:52.638Z,0.50
2022-11-24T11:26:52.676Z,0.40
2022-11-24T11:27:52.665Z,0.60
2022-11-24T11:28:52.824Z,0.40
2022-11-24T11:31:19.122Z,0.50
2022-11-24T11:34:04.792Z,0.50
2022-11-24T11:37:12.407Z,0.30
2022-11-24T11:38:12.589Z,0.50
2022-11-24T11:39:12.389Z,0.60
2022-11-24T11:40:13.346Z,0.50
2022-11-24T11:41:12.376Z,0.30
2022-11-24T11:42:25.718Z,0.50
2022-11-24T11:43:13.491Z,0.50
2022-11-24T11:44:12.313Z,0.60
2022-11-24T11:45:12.353Z,0.40
2022-11-24T11:46:12.373Z,0.40
2022-11-24T11:47:12.342Z,0.30
2022-11-24T11:48:12.254Z,0.40
2022-11-24T11:49:12.552Z,0.30
2022-11-24T11:50:12.285Z,0.30
2022-11-24T11:51:23.926Z,0.30
2022-11-24T11:52:13.246Z,0.50
2022-11-24T11:53:12.225Z,0.50
2022-11-24T11:54:12.178Z,0.40
2022-11-24T11:55:12.665Z,0.50
2022-11-24T11:56:12.167Z,0.50
2022-11-24T11:57:12.171Z,0.40
2022-11-24T11:58:12.161Z,0.40
2022-11-24T11:59:12.204Z,0.40
2022-11-24T12:00:12.114Z,0.50
2022-11-24T12:01:12.939Z,0.40
2022-11-24T12:02:12.106Z,0.40
2022-11-24T12:03:12.170Z,0.30
2022-11-24T12:04:12.132Z,0.50
2022-11-24T12:05:12.145Z,0.40
2022-11-24T12:06:12.022Z,0.40
2022-11-24T12:07:12.154Z,0.40
2022-11-24T12:08:17.609Z,0.70
2022-11-24T12:09:20.265Z,0.40
2022-11-24T12:10:13.097Z,0.60
2022-11-24T12:11:12.011Z,0.50
2022-11-24T12:12:11.949Z,0.40
2022-11-24T12:13:12.012Z,0.70
2022-11-24T12:14:11.924Z,0.40
2022-11-24T12:15:11.934Z,0.50
2022-11-24T12:16:11.960Z,0.40
2022-11-24T12:17:11.910Z,0.40
2022-11-24T12:18:33.186Z,0.50
2022-11-24T12:19:13.436Z,0.90
2022-11-24T12:20:11.898Z,0.50
2022-11-24T12:21:11.868Z,0.60
2022-11-24T12:22:11.844Z,2.00
2022-11-24T12:23:11.839Z,0.60
2022-11-24T12:24:11.785Z,0.50
2022-11-24T12:25:11.919Z,0.40
2022-11-24T12:26:11.817Z,0.30
2022-11-24T12:27:11.826Z,0.40
2022-11-24T12:28:11.765Z,0.60
2022-11-24T12:29:11.746Z,0.30
2022-11-24T12:30:11.795Z,0.40
2022-11-24T12:31:11.923Z,0.60
2022-11-24T12:32:11.689Z,0.50
2022-11-24T12:33:11.718Z,0.40
2022-11-24T12:34:11.676Z,0.40
2022-11-24T12:35:11.667Z,0.50
2022-11-24T12:36:11.645Z,0.30
2022-11-24T12:37:12.718Z,0.40
2022-11-24T12:38:11.607Z,0.50
2022-11-24T12:39:11.630Z,0.50
2022-11-24T12:40:11.627Z,0.50
2022-11-24T12:41:39.879Z,0.40
2022-11-24T12:42:12.577Z,0.40
2022-11-24T12:43:11.633Z,0.30
2022-11-24T12:44:11.583Z,0.50
2022-11-24T12:45:11.540Z,0.40
2022-11-24T12:46:17.010Z,0.50
2022-11-24T12:47:12.671Z,0.50
2022-11-24T12:48:11.469Z,0.50
2022-11-24T12:49:11.557Z,0.70
2022-11-24T12:50:11.581Z,0.50
2022-11-24T12:51:11.472Z,0.50
2022-11-24T12:52:11.423Z,0.60
2022-11-24T12:53:11.442Z,0.50
2022-11-24T12:54:11.396Z,0.40
2022-11-24T12:55:11.435Z,0.60
2022-11-24T12:56:11.382Z,0.40
2022-11-24T12:57:11.449Z,0.60
2022-11-24T12:58:11.594Z,0.50
2022-11-24T12:59:11.382Z,0.40
2022-11-24T13:00:12.289Z,0.50
2022-11-24T13:01:16.226Z,0.40
2022-11-24T13:02:12.372Z,0.50
2022-11-24T13:03:11.379Z,0.40
2022-11-24T13:04:11.302Z,0.80
2022-11-24T13:05:11.323Z,0.70
2022-11-24T13:06:11.327Z,0.40
2022-11-24T13:07:11.302Z,0.50
2022-11-24T13:08:11.224Z,0.50
2022-11-24T13:09:11.243Z,0.60
2022-11-24T13:10:11.226Z,0.50
2022-11-24T13:11:11.210Z,0.40
2022-11-24T13:12:11.433Z,0.50
2022-11-24T13:13:11.178Z,0.50
2022-11-24T13:14:11.287Z,0.50
2022-11-24T13:15:29.973Z,0.60
2022-11-24T13:16:35.331Z,0.40
2022-11-24T13:17:29.736Z,0.40
2022-11-24T13:18:12.593Z,0.60
2022-11-24T13:19:11.224Z,0.60
2022-11-24T13:20:11.084Z,0.50
2022-11-24T13:21:11.099Z,0.50
2022-11-24T13:22:11.140Z,0.40
2022-11-24T13:23:14.929Z,0.60
2022-11-24T13:24:11.029Z,0.60
2022-11-24T13:25:11.137Z,0.40
2022-11-24T13:26:10.994Z,0.60
2022-11-24T13:27:11.008Z,0.60
2022-11-24T13:28:11.028Z,0.60
2022-11-24T13:29:24.400Z,0.40
2022-11-24T13:30:11.942Z,0.50
2022-11-24T13:31:11.001Z,0.50
2022-11-24T13:32:10.912Z,0.50
2022-11-24T13:33:16.142Z,0.50
2022-11-24T13:34:11.987Z,0.50
2022-11-24T13:35:10.886Z,0.60
2022-11-24T13:36:10.875Z,0.60
2022-11-24T13:37:26.668Z,0.60
2022-11-24T13:38:11.858Z,0.40
2022-11-24T13:39:10.848Z,0.50
2022-11-24T13:40:18.564Z,0.40
2022-11-24T13:42:41.495Z,0.70
2022-11-24T13:43:11.783Z,0.70
2022-11-24T13:44:17.784Z,0.40
2022-11-24T13:45:10.755Z,0.50
2022-11-24T13:46:10.895Z,0.40
2022-11-24T13:47:10.835Z,0.50
2022-11-24T13:48:10.706Z,0.60
2022-11-24T13:49:10.710Z,0.50
2022-11-24T13:50:10.723Z,0.40
2022-11-24T13:51:10.720Z,0.30
2022-11-24T13:52:10.740Z,0.30
2022-11-24T13:53:10.682Z,0.50
2022-11-24T13:54:10.656Z,0.40
2022-11-24T13:55:11.678Z,0.50
2022-11-24T13:56:10.609Z,0.20
2022-11-24T13:57:10.621Z,0.40
2022-11-24T13:58:11.272Z,0.70
2022-11-24T13:59:10.614Z,0.40
2022-11-24T14:00:10.554Z,0.60
2022-11-24T14:01:10.594Z,0.40
2022-11-24T14:02:10.593Z,0.40
2022-11-24T14:03:10.588Z,0.40
2022-11-24T14:04:31.002Z,0.30
2022-11-24T14:05:11.509Z,0.50
2022-11-24T14:06:10.471Z,0.30
2022-11-24T14:07:10.549Z,0.30
2022-11-24T14:08:10.456Z,0.40
2022-11-24T14:09:10.470Z,0.50
2022-11-24T14:10:10.700Z,0.30
2022-11-24T14:11:10.451Z,0.50
2022-11-24T14:12:10.410Z,0.40
2022-11-24T14:14:10.454Z,0.30
2022-11-24T14:15:10.379Z,0.70
2022-11-24T14:16:11.147Z,0.30
2022-11-24T14:17:10.385Z,0.40
2022-11-24T14:18:10.349Z,0.40
2022-11-24T14:19:10.360Z,0.50
2022-11-24T14:20:10.315Z,0.40
2022-11-24T14:21:10.309Z,0.30
2022-11-24T14:22:10.347Z,0.50
2022-11-24T14:23:10.283Z,0.90
2022-11-24T14:24:10.357Z,0.40
2022-11-24T14:25:10.350Z,0.30
2022-11-24T14:26:10.365Z,0.60
2022-11-24T14:27:10.239Z,0.40
2022-11-24T14:28:10.403Z,0.40
2022-11-24T14:29:10.235Z,0.40
2022-11-24T14:30:10.166Z,0.50
2022-11-24T14:31:10.258Z,0.80
2022-11-24T14:32:10.136Z,0.70
2022-11-24T14:33:10.139Z,0.60
2022-11-24T14:34:10.295Z,0.60
2022-11-24T14:35:10.224Z,0.60
2022-11-24T14:36:10.094Z,0.70
2022-11-24T14:37:10.129Z,0.50
2022-11-24T14:38:10.064Z,0.50
2022-11-24T14:39:10.102Z,0.30
2022-11-24T14:40:10.642Z,0.50
2022-11-24T14:41:10.865Z,0.30
2022-11-24T14:42:10.010Z,0.50
2022-11-24T14:43:10.256Z,0.30
2022-11-24T14:44:10.115Z,0.20
2022-11-24T14:45:09.985Z,0.30
2022-11-24T14:46:10.107Z,0.40
2022-11-24T14:47:10.057Z,0.40
2022-11-24T14:48:09.944Z,0.30
2022-11-24T14:49:09.948Z,0.40
2022-11-24T14:50:09.987Z,0.50
2022-11-24T14:51:09.943Z,0.50
2022-11-24T14:52:09.952Z,0.40
2022-11-24T14:53:09.910Z,0.60
2022-11-24T14:54:09.851Z,0.50
2022-11-24T14:55:22.516Z,0.60
2022-11-24T14:56:10.862Z,0.40
2022-11-24T14:57:09.833Z,0.30
2022-11-24T14:58:09.950Z,0.40
2022-11-24T14:59:09.842Z,0.50
2022-11-24T15:00:09.780Z,0.50
2022-11-24T15:01:09.905Z,0.40
2022-11-24T15:02:09.805Z,0.30
2022-11-24T15:03:09.749Z,0.40
2022-11-24T15:04:11.671Z,0.30
2022-11-24T15:05:10.224Z,0.50
2022-11-24T15:06:09.718Z,0.40
2022-11-24T15:07:09.735Z,0.30
2022-11-24T15:08:09.679Z,0.40
2022-11-24T15:09:09.678Z,0.40
2022-11-24T15:10:10.840Z,0.40
2022-11-24T15:11:09.635Z,0.60
2022-11-24T15:12:09.639Z,0.30
2022-11-24T15:13:09.611Z,0.40
2022-11-24T15:14:09.630Z,0.40
2022-11-24T15:15:09.590Z,0.40
2022-11-24T15:16:09.666Z,0.70
2022-11-24T15:17:09.597Z,0.50
2022-11-24T15:18:09.570Z,0.60
2022-11-24T15:19:09.526Z,0.50
2022-11-24T15:20:09.545Z,0.80
2022-11-24T15:21:12.957Z,0.50
2022-11-24T15:22:10.568Z,0.50
2022-11-24T15:23:09.561Z,0.60
2022-11-24T15:24:09.493Z,0.40
2022-11-24T15:25:09.458Z,0.60
2022-11-24T15:26:09.486Z,0.60
2022-11-24T15:27:09.482Z,0.60
2022-11-24T15:28:09.436Z,0.40
2022-11-24T15:29:09.421Z,0.60
2022-11-24T15:30:09.423Z,0.50
2022-11-24T15:31:09.451Z,0.40
2022-11-24T15:32:09.442Z,0.30
2022-11-24T15:33:09.476Z,0.40
2022-11-24T15:34:09.428Z,0.60
2022-11-24T15:35:09.323Z,0.50
2022-11-24T15:36:09.360Z,0.30
2022-11-24T15:37:09.304Z,0.50
2022-11-24T15:38:09.308Z,0.40
2022-11-24T15:39:09.730Z,0.40
2022-11-24T15:40:09.296Z,0.70
2022-11-24T15:41:09.260Z,0.70
2022-11-24T15:42:09.270Z,0.50
2022-11-24T15:43:09.241Z,1.00
2022-11-24T15:44:09.550Z,0.60
2022-11-24T15:45:09.989Z,0.60
2022-11-24T15:46:09.227Z,0.60
2022-11-24T15:47:09.246Z,0.40
2022-11-24T15:48:13.467Z,0.60
2022-11-24T15:49:10.232Z,0.40
2022-11-24T15:50:09.163Z,0.50
2022-11-24T15:51:09.488Z,1.00
2022-11-24T15:52:09.227Z,0.80
2022-11-24T15:53:09.164Z,0.50
2022-11-24T15:54:09.097Z,0.70
2022-11-24T15:55:09.078Z,0.60
2022-11-24T15:56:09.076Z,1.00
2022-11-24T15:57:09.117Z,0.60
2022-11-24T15:58:09.048Z,0.60
2022-11-24T15:59:09.037Z,0.50
2022-11-24T16:00:09.060Z,0.80
2022-11-24T16:01:09.052Z,0.80
2022-11-24T16:02:17.101Z,0.60
2022-11-24T16:03:38.737Z,0.80
2022-11-24T16:04:16.512Z,0.60
2022-11-24T16:05:16.985Z,0.50
2022-11-24T16:06:22.256Z,0.50
2022-11-24T16:07:09.958Z,0.60
2022-11-24T16:08:08.989Z,0.50
2022-11-24T16:09:09.031Z,0.70
2022-11-24T16:10:08.917Z,0.70
2022-11-24T16:11:08.909Z,0.60
2022-11-24T16:12:08.918Z,0.60
2022-11-24T16:13:08.847Z,0.80
2022-11-24T16:14:09.155Z,0.70
2022-11-24T16:15:08.806Z,0.70
2022-11-24T16:16:08.870Z,0.50
2022-11-24T16:17:08.815Z,0.40
2022-11-24T16:18:08.796Z,0.80
2022-11-24T16:19:08.765Z,0.60
2022-11-24T16:20:09.173Z,0.50
2022-11-24T16:21:08.805Z,0.60
2022-11-24T16:22:08.751Z,0.60
2022-11-24T16:23:08.717Z,0.70
2022-11-24T16:24:08.721Z,0.70
2022-11-24T16:25:08.707Z,0.80
2022-11-24T16:26:09.735Z,0.60
2022-11-24T16:27:08.663Z,0.60
2022-11-24T16:28:08.761Z,0.60
2022-11-24T16:29:08.649Z,0.90
2022-11-24T16:30:08.715Z,0.70
2022-11-24T16:31:08.657Z,0.60
2022-11-24T16:32:08.736Z,0.50
2022-11-24T16:33:08.625Z,0.60
2022-11-24T16:34:08.623Z,0.40
2022-11-24T16:35:08.574Z,0.60
2022-11-24T16:36:08.582Z,0.50
2022-11-24T16:37:08.554Z,0.40
2022-11-24T16:38:08.639Z,0.90
2022-11-24T16:39:08.554Z,0.40
2022-11-24T16:40:08.591Z,0.70
2022-11-24T16:41:08.565Z,0.40
2022-11-24T16:42:08.520Z,0.60
2022-11-24T16:43:08.682Z,0.70
2022-11-24T16:44:08.518Z,0.50
2022-11-24T16:45:08.674Z,0.60
2022-11-24T16:46:08.482Z,0.50
2022-11-24T16:47:08.429Z,0.70
2022-11-24T16:48:08.433Z,1.00
2022-11-24T16:49:08.408Z,1.00
2022-11-24T16:50:08.432Z,1.20
2022-11-24T16:51:08.371Z,0.90
2022-11-24T16:52:08.457Z,0.70
2022-11-24T16:53:08.333Z,0.60
2022-11-24T16:54:08.457Z,0.80
2022-11-24T16:55:08.476Z,0.70
2022-11-24T16:56:08.347Z,0.50
2022-11-24T16:57:14.524Z,0.80
2022-11-24T16:58:09.410Z,0.60
2022-11-24T16:59:08.257Z,0.80
2022-11-24T17:00:09.987Z,0.70
2022-11-24T17:01:08.309Z,0.60
2022-11-24T17:02:08.281Z,0.70
2022-11-24T17:03:08.230Z,0.60
2022-11-24T17:04:12.423Z,0.70
2022-11-24T17:05:08.245Z,0.70
2022-11-24T17:06:08.405Z,0.60
2022-11-24T17:07:08.282Z,0.60
2022-11-24T17:08:08.176Z,0.80
2022-11-24T17:09:08.189Z,0.90
2022-11-24T17:10:08.199Z,0.80
2022-11-24T17:11:08.233Z,0.90
2022-11-24T17:12:08.293Z,1.10
2022-11-24T17:13:08.092Z,0.80
2022-11-24T17:14:08.324Z,0.90
2022-11-24T17:15:32.760Z,1.50
2022-11-24T17:17:18.281Z,0.90
2022-11-24T17:18:24.364Z,0.60
2022-11-24T17:19:19.350Z,0.40
2022-11-24T17:20:18.191Z,0.40
2022-11-24T17:21:18.189Z,0.70
2022-11-24T17:22:18.147Z,0.70
2022-11-24T17:23:18.175Z,0.40
2022-11-24T17:24:18.137Z,0.60
2022-11-24T17:25:18.213Z,0.50
2022-11-24T17:26:18.124Z,0.40
2022-11-24T17:27:18.129Z,0.50
2022-11-24T17:28:18.172Z,0.30
2022-11-24T17:29:18.115Z,0.40
2022-11-24T17:30:18.066Z,0.50
2022-11-24T17:31:18.565Z,0.50
2022-11-24T17:32:18.133Z,0.60
2022-11-24T17:33:18.047Z,0.50
2022-11-24T17:34:18.015Z,0.50
2022-11-24T17:35:18.098Z,0.40
2022-11-24T17:36:17.994Z,0.50
2022-11-24T17:37:18.136Z,0.70
2022-11-24T17:38:17.974Z,1.00
2022-11-24T17:39:23.208Z,0.70
2022-11-24T17:40:28.553Z,0.80
2022-11-24T17:41:18.950Z,0.90
2022-11-24T17:42:17.911Z,0.70
2022-11-24T17:43:18.023Z,0.70
2022-11-24T17:44:17.892Z,1.00
2022-11-24T17:45:17.889Z,1.00
2022-11-24T17:46:17.985Z,1.10
2022-11-24T17:47:17.880Z,1.00
2022-11-24T17:48:17.846Z,1.10
2022-11-24T17:49:17.939Z,0.70
2022-11-24T17:50:22.422Z,0.80
2022-11-24T17:51:18.817Z,1.20
2022-11-24T17:52:17.798Z,1.20
2022-11-24T17:53:17.801Z,0.90
2022-11-24T17:54:45.418Z,1.00
2022-11-24T17:55:18.843Z,1.00
2022-11-24T17:56:17.737Z,1.10
2022-11-24T17:57:17.747Z,1.20
2022-11-24T17:58:17.711Z,1.00
2022-11-24T17:59:17.716Z,1.20
2022-11-24T18:00:19.855Z,1.10
2022-11-24T18:01:17.755Z,1.40
2022-11-24T18:02:17.726Z,1.40
2022-11-24T18:03:17.682Z,1.50
2022-11-24T18:04:17.635Z,1.80
2022-11-24T18:05:17.658Z,1.20
2022-11-24T18:06:17.649Z,2.60
2022-11-24T18:07:17.697Z,1.90
2022-11-24T18:08:17.584Z,2.10
2022-11-24T18:09:17.587Z,1.70
2022-11-24T18:10:17.644Z,1.80
2022-11-24T18:11:17.586Z,1.70
2022-11-24T18:12:17.569Z,2.20
2022-11-24T18:13:34.156Z,1.80
2022-11-24T18:14:18.520Z,1.40
2022-11-24T18:15:17.546Z,1.60
2022-11-24T18:16:18.014Z,1.10
2022-11-24T18:17:17.483Z,1.90
2022-11-24T18:18:17.483Z,1.40
2022-11-24T18:19:17.459Z,1.60
2022-11-24T18:20:17.440Z,1.20
2022-11-24T18:21:17.475Z,1.70
2022-11-24T18:22:19.117Z,2.00
2022-11-24T18:23:18.410Z,2.20
2022-11-24T18:24:22.581Z,2.30
2022-11-24T18:25:18.388Z,1.80
2022-11-24T18:26:17.378Z,2.90
2022-11-24T18:27:18.042Z,2.50
2022-11-24T18:28:17.403Z,2.80